sensor_id;sensor_type;location;lat;lon;timestamp;temperature;humidity
10692;DHT22;5396;50.950;6.988;2023-04-25T00:00:45;7.40;99.90
10692;DHT22;5396;50.950;6.988;2023-04-25T00:03:11;7.40;99.90
10692;DHT22;5396;50.950;6.988;2023-04-25T00:05:36;7.40;99.90
10692;DHT22;5396;50.950;6.988;2023-04-25T00:08:03;7.40;99.90
10692;DHT22;5396;50.950;6.988;2023-04-25T00:10:28;7.40;99.90
10692;DHT22;5396;50.950;6.988;2023-04-25T00:12:54;7.40;99.90
10692;DHT22;5396;50.950;6.988;2023-04-25T00:15:20;7.40;99.90
10692;DHT22;5396;50.950;6.988;2023-04-25T00:17:46;7.40;99.90
10692;DHT22;5396;50.950;6.988;2023-04-25T00:20:12;7.40;99.90
10692;DHT22;5396;50.950;6.988;2023-04-25T00:22:37;7.30;99.90
10692;DHT22;5396;50.950;6.988;2023-04-25T00:25:06;7.30;99.90
10692;DHT22;5396;50.950;6.988;2023-04-25T00:27:32;7.30;99.90
10692;DHT22;5396;50.950;6.988;2023-04-25T00:29:58;7.30;99.90
10692;DHT22;5396;50.950;6.988;2023-04-25T00:32:23;7.30;99.90
10692;DHT22;5396;50.950;6.988;2023-04-25T00:34:49;7.20;99.90
10692;DHT22;5396;50.950;6.988;2023-04-25T00:37:15;7.20;99.90
10692;DHT22;5396;50.950;6.988;2023-04-25T00:39:41;7.10;99.90
10692;DHT22;5396;50.950;6.988;2023-04-25T00:42:06;7.10;99.90
10692;DHT22;5396;50.950;6.988;2023-04-25T00:44:33;7.10;99.90
10692;DHT22;5396;50.950;6.988;2023-04-25T00:47:01;7.00;99.90
10692;DHT22;5396;50.950;6.988;2023-04-25T00:49:27;7.00;99.90
10692;DHT22;5396;50.950;6.988;2023-04-25T00:51:53;7.00;99.90
10692;DHT22;5396;50.950;6.988;2023-04-25T00:54:18;6.90;99.90
10692;DHT22;5396;50.950;6.988;2023-04-25T00:56:45;6.90;99.90
10692;DHT22;5396;50.950;6.988;2023-04-25T00:59:10;6.90;99.90
10692;DHT22;5396;50.950;6.988;2023-04-25T01:01:37;6.80;99.90
10692;DHT22;5396;50.950;6.988;2023-04-25T01:04:04;6.80;99.90
10692;DHT22;5396;50.950;6.988;2023-04-25T01:06:30;6.80;99.90
10692;DHT22;5396;50.950;6.988;2023-04-25T01:08:57;6.70;99.90
10692;DHT22;5396;50.950;6.988;2023-04-25T01:11:24;6.70;99.90
10692;DHT22;5396;50.950;6.988;2023-04-25T01:13:50;6.70;99.90
10692;DHT22;5396;50.950;6.988;2023-04-25T01:16:16;6.70;99.90
10692;DHT22;5396;50.950;6.988;2023-04-25T01:18:42;6.60;99.90
10692;DHT22;5396;50.950;6.988;2023-04-25T01:21:09;6.60;99.90
10692;DHT22;5396;50.950;6.988;2023-04-25T01:23:36;6.60;99.90
10692;DHT22;5396;50.950;6.988;2023-04-25T01:26:02;6.50;99.90
10692;DHT22;5396;50.950;6.988;2023-04-25T01:28:29;6.50;99.90
10692;DHT22;5396;50.950;6.988;2023-04-25T01:30:55;6.40;99.90
10692;DHT22;5396;50.950;6.988;2023-04-25T01:33:22;6.40;99.90
10692;DHT22;5396;50.950;6.988;2023-04-25T01:35:47;6.40;99.90
10692;DHT22;5396;50.950;6.988;2023-04-25T01:38:14;6.40;99.90
10692;DHT22;5396;50.950;6.988;2023-04-25T01:40:40;6.40;99.90
10692;DHT22;5396;50.950;6.988;2023-04-25T01:43:07;6.40;99.90
10692;DHT22;5396;50.950;6.988;2023-04-25T01:45:37;6.40;99.90
10692;DHT22;5396;50.950;6.988;2023-04-25T01:48:05;6.40;99.90
10692;DHT22;5396;50.950;6.988;2023-04-25T01:50:31;6.40;99.90
10692;DHT22;5396;50.950;6.988;2023-04-25T01:52:57;6.30;99.90
10692;DHT22;5396;50.950;6.988;2023-04-25T01:55:22;6.30;99.90
10692;DHT22;5396;50.950;6.988;2023-04-25T01:57:48;6.30;99.90
10692;DHT22;5396;50.950;6.988;2023-04-25T02:00:13;6.20;99.90
10692;DHT22;5396;50.950;6.988;2023-04-25T02:02:39;6.20;99.90
10692;DHT22;5396;50.950;6.988;2023-04-25T02:05:05;6.20;99.90
10692;DHT22;5396;50.950;6.988;2023-04-25T02:07:31;6.10;99.90
10692;DHT22;5396;50.950;6.988;2023-04-25T02:09:57;6.10;99.90
10692;DHT22;5396;50.950;6.988;2023-04-25T02:12:23;6.10;99.90
10692;DHT22;5396;50.950;6.988;2023-04-25T02:14:48;6.00;99.90
10692;DHT22;5396;50.950;6.988;2023-04-25T02:17:14;6.00;99.90
10692;DHT22;5396;50.950;6.988;2023-04-25T02:19:40;6.00;99.90
10692;DHT22;5396;50.950;6.988;2023-04-25T02:22:05;5.90;99.90
10692;DHT22;5396;50.950;6.988;2023-04-25T02:24:31;5.90;99.90
10692;DHT22;5396;50.950;6.988;2023-04-25T02:26:57;6.00;99.90
10692;DHT22;5396;50.950;6.988;2023-04-25T02:29:23;6.00;99.90
10692;DHT22;5396;50.950;6.988;2023-04-25T02:31:48;6.00;99.90
10692;DHT22;5396;50.950;6.988;2023-04-25T02:34:14;6.00;99.90
10692;DHT22;5396;50.950;6.988;2023-04-25T02:36:39;6.00;99.90
10692;DHT22;5396;50.950;6.988;2023-04-25T02:39:05;6.00;99.90
10692;DHT22;5396;50.950;6.988;2023-04-25T02:41:30;6.10;99.90
10692;DHT22;5396;50.950;6.988;2023-04-25T02:43:56;6.10;99.90
10692;DHT22;5396;50.950;6.988;2023-04-25T02:46:22;6.10;99.90
10692;DHT22;5396;50.950;6.988;2023-04-25T02:48:47;6.10;99.90
10692;DHT22;5396;50.950;6.988;2023-04-25T02:51:13;6.20;99.90
10692;DHT22;5396;50.950;6.988;2023-04-25T02:53:39;6.20;99.90
10692;DHT22;5396;50.950;6.988;2023-04-25T02:56:05;6.30;99.90
10692;DHT22;5396;50.950;6.988;2023-04-25T02:58:30;6.30;99.90
10692;DHT22;5396;50.950;6.988;2023-04-25T03:00:56;6.30;99.90
10692;DHT22;5396;50.950;6.988;2023-04-25T03:03:21;6.30;99.90
10692;DHT22;5396;50.950;6.988;2023-04-25T03:05:51;6.30;99.90
10692;DHT22;5396;50.950;6.988;2023-04-25T03:08:17;6.40;99.90
10692;DHT22;5396;50.950;6.988;2023-04-25T03:10:43;6.40;99.90
10692;DHT22;5396;50.950;6.988;2023-04-25T03:13:09;6.40;99.90
10692;DHT22;5396;50.950;6.988;2023-04-25T03:15:36;6.40;99.90
10692;DHT22;5396;50.950;6.988;2023-04-25T03:18:02;6.40;99.90
10692;DHT22;5396;50.950;6.988;2023-04-25T03:20:28;6.40;99.90
10692;DHT22;5396;50.950;6.988;2023-04-25T03:22:54;6.40;99.90
10692;DHT22;5396;50.950;6.988;2023-04-25T03:25:19;6.40;99.90
10692;DHT22;5396;50.950;6.988;2023-04-25T03:27:45;6.40;99.90
10692;DHT22;5396;50.950;6.988;2023-04-25T03:30:11;6.40;99.90
10692;DHT22;5396;50.950;6.988;2023-04-25T03:32:36;6.40;99.90
10692;DHT22;5396;50.950;6.988;2023-04-25T03:35:02;6.30;99.90
10692;DHT22;5396;50.950;6.988;2023-04-25T03:37:28;6.30;99.90
10692;DHT22;5396;50.950;6.988;2023-04-25T03:39:54;6.30;99.90
10692;DHT22;5396;50.950;6.988;2023-04-25T03:42:19;6.40;99.90
10692;DHT22;5396;50.950;6.988;2023-04-25T03:44:48;6.30;99.90
10692;DHT22;5396;50.950;6.988;2023-04-25T03:47:14;6.40;99.90
10692;DHT22;5396;50.950;6.988;2023-04-25T03:49:40;6.40;99.90
10692;DHT22;5396;50.950;6.988;2023-04-25T03:52:06;6.40;99.90
10692;DHT22;5396;50.950;6.988;2023-04-25T03:54:32;6.40;99.90
10692;DHT22;5396;50.950;6.988;2023-04-25T03:56:57;6.40;99.90
10692;DHT22;5396;50.950;6.988;2023-04-25T03:59:23;6.40;99.90
10692;DHT22;5396;50.950;6.988;2023-04-25T04:01:48;6.40;99.90
10692;DHT22;5396;50.950;6.988;2023-04-25T04:04:14;6.40;99.90
10692;DHT22;5396;50.950;6.988;2023-04-25T04:06:39;6.40;99.90
10692;DHT22;5396;50.950;6.988;2023-04-25T04:09:05;6.40;99.90
10692;DHT22;5396;50.950;6.988;2023-04-25T04:11:35;6.40;99.90
10692;DHT22;5396;50.950;6.988;2023-04-25T04:14:02;6.40;99.90
10692;DHT22;5396;50.950;6.988;2023-04-25T04:16:27;6.40;99.90
10692;DHT22;5396;50.950;6.988;2023-04-25T04:18:53;6.40;99.90
10692;DHT22;5396;50.950;6.988;2023-04-25T04:21:18;6.40;99.90
10692;DHT22;5396;50.950;6.988;2023-04-25T04:23:44;6.40;99.90
10692;DHT22;5396;50.950;6.988;2023-04-25T04:26:10;6.50;99.90
10692;DHT22;5396;50.950;6.988;2023-04-25T04:28:36;6.40;99.90
10692;DHT22;5396;50.950;6.988;2023-04-25T04:31:03;6.40;99.90
10692;DHT22;5396;50.950;6.988;2023-04-25T04:33:29;6.50;99.90
10692;DHT22;5396;50.950;6.988;2023-04-25T04:35:56;6.50;99.90
10692;DHT22;5396;50.950;6.988;2023-04-25T04:38:21;6.50;99.90
10692;DHT22;5396;50.950;6.988;2023-04-25T04:40:47;6.40;99.90
10692;DHT22;5396;50.950;6.988;2023-04-25T04:43:13;6.50;99.90
10692;DHT22;5396;50.950;6.988;2023-04-25T04:45:40;6.50;99.90
10692;DHT22;5396;50.950;6.988;2023-04-25T04:48:06;6.50;99.90
10692;DHT22;5396;50.950;6.988;2023-04-25T04:50:31;6.50;99.90
10692;DHT22;5396;50.950;6.988;2023-04-25T04:52:58;6.50;99.90
10692;DHT22;5396;50.950;6.988;2023-04-25T04:55:24;6.50;99.90
10692;DHT22;5396;50.950;6.988;2023-04-25T04:57:49;6.50;99.90
10692;DHT22;5396;50.950;6.988;2023-04-25T05:00:15;6.50;99.90
10692;DHT22;5396;50.950;6.988;2023-04-25T05:02:41;6.50;99.90
10692;DHT22;5396;50.950;6.988;2023-04-25T05:05:07;6.50;99.90
10692;DHT22;5396;50.950;6.988;2023-04-25T05:07:33;6.50;99.90
10692;DHT22;5396;50.950;6.988;2023-04-25T05:09:59;6.50;99.90
10692;DHT22;5396;50.950;6.988;2023-04-25T05:12:25;6.50;99.90
10692;DHT22;5396;50.950;6.988;2023-04-25T05:14:51;6.60;99.90
10692;DHT22;5396;50.950;6.988;2023-04-25T05:17:16;6.60;99.90
10692;DHT22;5396;50.950;6.988;2023-04-25T05:19:42;6.60;99.90
10692;DHT22;5396;50.950;6.988;2023-04-25T05:22:07;6.60;99.90
10692;DHT22;5396;50.950;6.988;2023-04-25T05:24:33;6.60;99.90
10692;DHT22;5396;50.950;6.988;2023-04-25T05:26:58;6.60;99.90
10692;DHT22;5396;50.950;6.988;2023-04-25T05:29:24;6.60;99.90
10692;DHT22;5396;50.950;6.988;2023-04-25T05:31:50;6.70;99.90
10692;DHT22;5396;50.950;6.988;2023-04-25T05:34:15;6.60;99.90
10692;DHT22;5396;50.950;6.988;2023-04-25T05:36:42;6.70;99.90
10692;DHT22;5396;50.950;6.988;2023-04-25T05:39:07;6.70;99.90
10692;DHT22;5396;50.950;6.988;2023-04-25T05:41:34;6.70;99.90
10692;DHT22;5396;50.950;6.988;2023-04-25T05:43:59;6.70;99.90
10692;DHT22;5396;50.950;6.988;2023-04-25T05:46:25;6.70;99.90
10692;DHT22;5396;50.950;6.988;2023-04-25T05:48:51;6.80;99.90
10692;DHT22;5396;50.950;6.988;2023-04-25T05:51:16;6.70;99.90
10692;DHT22;5396;50.950;6.988;2023-04-25T05:53:43;6.70;99.90
10692;DHT22;5396;50.950;6.988;2023-04-25T05:56:09;6.70;99.90
10692;DHT22;5396;50.950;6.988;2023-04-25T05:58:35;6.80;99.90
10692;DHT22;5396;50.950;6.988;2023-04-25T06:01:01;6.90;99.90
10692;DHT22;5396;50.950;6.988;2023-04-25T06:03:26;6.90;99.90
10692;DHT22;5396;50.950;6.988;2023-04-25T06:05:52;6.90;99.90
10692;DHT22;5396;50.950;6.988;2023-04-25T06:08:17;6.90;99.90
10692;DHT22;5396;50.950;6.988;2023-04-25T06:10:43;6.90;99.90
10692;DHT22;5396;50.950;6.988;2023-04-25T06:13:08;6.90;99.90
10692;DHT22;5396;50.950;6.988;2023-04-25T06:15:34;6.90;99.90
10692;DHT22;5396;50.950;6.988;2023-04-25T06:18:00;6.90;99.90
10692;DHT22;5396;50.950;6.988;2023-04-25T06:20:26;7.00;99.90
10692;DHT22;5396;50.950;6.988;2023-04-25T06:22:51;7.20;99.90
10692;DHT22;5396;50.950;6.988;2023-04-25T06:25:17;7.40;99.90
10692;DHT22;5396;50.950;6.988;2023-04-25T06:27:43;7.60;99.90
10692;DHT22;5396;50.950;6.988;2023-04-25T06:30:09;7.80;99.90
10692;DHT22;5396;50.950;6.988;2023-04-25T06:32:36;7.90;99.90
10692;DHT22;5396;50.950;6.988;2023-04-25T06:35:02;8.10;99.90
10692;DHT22;5396;50.950;6.988;2023-04-25T06:37:28;8.20;99.90
10692;DHT22;5396;50.950;6.988;2023-04-25T06:39:54;8.00;99.90
10692;DHT22;5396;50.950;6.988;2023-04-25T06:42:19;8.10;99.90
10692;DHT22;5396;50.950;6.988;2023-04-25T06:44:45;8.20;99.90
10692;DHT22;5396;50.950;6.988;2023-04-25T06:47:10;8.40;99.90
10692;DHT22;5396;50.950;6.988;2023-04-25T06:49:36;8.40;99.90
10692;DHT22;5396;50.950;6.988;2023-04-25T06:52:02;8.40;99.90
10692;DHT22;5396;50.950;6.988;2023-04-25T06:54:28;8.40;99.90
10692;DHT22;5396;50.950;6.988;2023-04-25T06:56:55;8.50;99.90
10692;DHT22;5396;50.950;6.988;2023-04-25T06:59:21;8.50;99.90
10692;DHT22;5396;50.950;6.988;2023-04-25T07:01:47;8.70;99.90
10692;DHT22;5396;50.950;6.988;2023-04-25T07:04:12;8.80;99.90
10692;DHT22;5396;50.950;6.988;2023-04-25T07:06:38;8.90;99.90
10692;DHT22;5396;50.950;6.988;2023-04-25T07:09:08;8.90;99.90
10692;DHT22;5396;50.950;6.988;2023-04-25T07:11:35;8.70;99.90
10692;DHT22;5396;50.950;6.988;2023-04-25T07:14:01;8.80;99.90
10692;DHT22;5396;50.950;6.988;2023-04-25T07:16:26;8.80;99.90
10692;DHT22;5396;50.950;6.988;2023-04-25T07:18:52;8.80;99.90
10692;DHT22;5396;50.950;6.988;2023-04-25T07:21:17;9.00;99.90
10692;DHT22;5396;50.950;6.988;2023-04-25T07:23:43;9.10;99.90
10692;DHT22;5396;50.950;6.988;2023-04-25T07:26:09;9.20;99.90
10692;DHT22;5396;50.950;6.988;2023-04-25T07:28:34;8.80;99.90
10692;DHT22;5396;50.950;6.988;2023-04-25T07:31:00;8.50;99.90
10692;DHT22;5396;50.950;6.988;2023-04-25T07:33:25;8.30;99.90
10692;DHT22;5396;50.950;6.988;2023-04-25T07:35:52;8.30;99.90
10692;DHT22;5396;50.950;6.988;2023-04-25T07:38:18;8.20;99.90
10692;DHT22;5396;50.950;6.988;2023-04-25T07:40:43;8.20;99.90
10692;DHT22;5396;50.950;6.988;2023-04-25T07:43:09;8.20;99.90
10692;DHT22;5396;50.950;6.988;2023-04-25T07:45:37;8.30;99.90
10692;DHT22;5396;50.950;6.988;2023-04-25T07:48:03;8.40;99.90
10692;DHT22;5396;50.950;6.988;2023-04-25T07:50:28;8.30;99.90
10692;DHT22;5396;50.950;6.988;2023-04-25T07:52:54;8.30;99.90
10692;DHT22;5396;50.950;6.988;2023-04-25T07:55:19;8.40;99.90
10692;DHT22;5396;50.950;6.988;2023-04-25T07:57:45;8.40;99.90
10692;DHT22;5396;50.950;6.988;2023-04-25T08:00:11;8.40;99.90
10692;DHT22;5396;50.950;6.988;2023-04-25T08:02:38;8.40;99.90
10692;DHT22;5396;50.950;6.988;2023-04-25T08:05:03;8.60;99.90
10692;DHT22;5396;50.950;6.988;2023-04-25T08:07:29;8.80;99.90
10692;DHT22;5396;50.950;6.988;2023-04-25T08:09:55;9.10;99.90
10692;DHT22;5396;50.950;6.988;2023-04-25T08:12:22;9.50;99.90
10692;DHT22;5396;50.950;6.988;2023-04-25T08:14:47;9.70;99.90
10692;DHT22;5396;50.950;6.988;2023-04-25T08:17:13;9.80;99.90
10692;DHT22;5396;50.950;6.988;2023-04-25T08:19:39;9.90;99.90
10692;DHT22;5396;50.950;6.988;2023-04-25T08:22:04;10.00;99.90
10692;DHT22;5396;50.950;6.988;2023-04-25T08:24:30;10.00;99.90
10692;DHT22;5396;50.950;6.988;2023-04-25T08:26:55;10.00;99.90
10692;DHT22;5396;50.950;6.988;2023-04-25T08:29:21;9.80;99.90
10692;DHT22;5396;50.950;6.988;2023-04-25T08:31:49;9.70;99.90
10692;DHT22;5396;50.950;6.988;2023-04-25T08:34:15;9.60;99.90
10692;DHT22;5396;50.950;6.988;2023-04-25T08:36:41;9.70;99.90
10692;DHT22;5396;50.950;6.988;2023-04-25T08:39:06;9.80;99.90
10692;DHT22;5396;50.950;6.988;2023-04-25T08:41:32;9.80;99.90
10692;DHT22;5396;50.950;6.988;2023-04-25T08:43:58;9.80;99.90
10692;DHT22;5396;50.950;6.988;2023-04-25T08:46:25;9.80;99.90
10692;DHT22;5396;50.950;6.988;2023-04-25T08:48:53;9.80;99.90
10692;DHT22;5396;50.950;6.988;2023-04-25T08:51:22;9.80;99.90
10692;DHT22;5396;50.950;6.988;2023-04-25T08:53:53;9.60;99.90
10692;DHT22;5396;50.950;6.988;2023-04-25T08:56:19;9.50;99.90
10692;DHT22;5396;50.950;6.988;2023-04-25T08:58:49;9.40;99.90
10692;DHT22;5396;50.950;6.988;2023-04-25T09:01:18;9.50;99.90
10692;DHT22;5396;50.950;6.988;2023-04-25T09:03:44;9.70;99.90
10692;DHT22;5396;50.950;6.988;2023-04-25T09:06:11;9.90;99.90
10692;DHT22;5396;50.950;6.988;2023-04-25T09:08:37;10.00;99.90
10692;DHT22;5396;50.950;6.988;2023-04-25T09:11:02;10.10;99.90
10692;DHT22;5396;50.950;6.988;2023-04-25T09:13:28;10.00;99.90
10692;DHT22;5396;50.950;6.988;2023-04-25T09:15:56;9.90;99.90
10692;DHT22;5396;50.950;6.988;2023-04-25T09:21:15;9.80;99.90
10692;DHT22;5396;50.950;6.988;2023-04-25T09:23:45;9.90;99.90
10692;DHT22;5396;50.950;6.988;2023-04-25T09:26:14;10.10;99.90
10692;DHT22;5396;50.950;6.988;2023-04-25T09:28:42;10.30;99.90
10692;DHT22;5396;50.950;6.988;2023-04-25T09:31:09;10.40;99.90
10692;DHT22;5396;50.950;6.988;2023-04-25T09:33:36;10.50;99.90
10692;DHT22;5396;50.950;6.988;2023-04-25T09:36:06;10.40;99.90
10692;DHT22;5396;50.950;6.988;2023-04-25T09:38:45;10.30;99.90
10692;DHT22;5396;50.950;6.988;2023-04-25T09:41:11;10.50;99.90
10692;DHT22;5396;50.950;6.988;2023-04-25T09:43:38;10.60;99.90
10692;DHT22;5396;50.950;6.988;2023-04-25T09:46:10;10.40;99.90
10692;DHT22;5396;50.950;6.988;2023-04-25T09:48:37;10.00;99.90
10692;DHT22;5396;50.950;6.988;2023-04-25T09:51:15;9.60;99.90
10692;DHT22;5396;50.950;6.988;2023-04-25T09:53:45;9.50;99.90
10692;DHT22;5396;50.950;6.988;2023-04-25T09:56:12;9.40;99.90
10692;DHT22;5396;50.950;6.988;2023-04-25T09:58:39;9.40;99.90
10692;DHT22;5396;50.950;6.988;2023-04-25T10:01:09;9.50;99.90
10692;DHT22;5396;50.950;6.988;2023-04-25T10:03:37;9.70;99.90
10692;DHT22;5396;50.950;6.988;2023-04-25T10:06:08;9.90;99.90
10692;DHT22;5396;50.950;6.988;2023-04-25T10:08:35;9.80;99.90
10692;DHT22;5396;50.950;6.988;2023-04-25T10:11:04;9.70;99.90
10692;DHT22;5396;50.950;6.988;2023-04-25T10:13:30;9.50;99.90
10692;DHT22;5396;50.950;6.988;2023-04-25T10:16:01;9.30;99.90
10692;DHT22;5396;50.950;6.988;2023-04-25T10:18:28;9.20;99.90
10692;DHT22;5396;50.950;6.988;2023-04-25T10:21:02;9.30;99.90
10692;DHT22;5396;50.950;6.988;2023-04-25T10:23:30;9.40;99.90
10692;DHT22;5396;50.950;6.988;2023-04-25T10:25:57;9.40;99.90
10692;DHT22;5396;50.950;6.988;2023-04-25T10:28:23;9.50;99.90
10692;DHT22;5396;50.950;6.988;2023-04-25T10:31:07;9.70;99.90
10692;DHT22;5396;50.950;6.988;2023-04-25T10:33:37;9.80;99.90
10692;DHT22;5396;50.950;6.988;2023-04-25T10:36:14;9.80;99.90
10692;DHT22;5396;50.950;6.988;2023-04-25T10:38:44;9.90;99.90
10692;DHT22;5396;50.950;6.988;2023-04-25T10:41:12;10.10;99.90
10692;DHT22;5396;50.950;6.988;2023-04-25T10:43:43;10.30;99.90
10692;DHT22;5396;50.950;6.988;2023-04-25T10:46:28;10.50;99.90
10692;DHT22;5396;50.950;6.988;2023-04-25T10:48:57;10.30;99.90
10692;DHT22;5396;50.950;6.988;2023-04-25T10:51:25;10.00;99.90
10692;DHT22;5396;50.950;6.988;2023-04-25T10:58:49;9.60;99.90
10692;DHT22;5396;50.950;6.988;2023-04-25T11:01:24;9.40;99.90
10692;DHT22;5396;50.950;6.988;2023-04-25T11:03:57;9.40;99.90
10692;DHT22;5396;50.950;6.988;2023-04-25T11:06:32;9.40;99.90
10692;DHT22;5396;50.950;6.988;2023-04-25T11:09:03;9.40;99.90
10692;DHT22;5396;50.950;6.988;2023-04-25T11:11:36;9.50;99.90
10692;DHT22;5396;50.950;6.988;2023-04-25T11:14:02;9.70;99.90
10692;DHT22;5396;50.950;6.988;2023-04-25T11:16:27;9.90;99.90
10692;DHT22;5396;50.950;6.988;2023-04-25T11:18:53;10.00;99.90
10692;DHT22;5396;50.950;6.988;2023-04-25T11:21:19;9.90;99.90
10692;DHT22;5396;50.950;6.988;2023-04-25T11:23:46;10.00;99.90
10692;DHT22;5396;50.950;6.988;2023-04-25T11:26:13;10.10;99.90
10692;DHT22;5396;50.950;6.988;2023-04-25T11:28:39;10.20;99.90
10692;DHT22;5396;50.950;6.988;2023-04-25T11:31:04;10.30;99.90
10692;DHT22;5396;50.950;6.988;2023-04-25T11:33:30;10.30;99.90
10692;DHT22;5396;50.950;6.988;2023-04-25T11:35:56;10.30;99.90
10692;DHT22;5396;50.950;6.988;2023-04-25T11:38:22;10.20;99.90
10692;DHT22;5396;50.950;6.988;2023-04-25T11:40:53;10.30;99.90
10692;DHT22;5396;50.950;6.988;2023-04-25T11:43:21;10.50;99.90
10692;DHT22;5396;50.950;6.988;2023-04-25T11:45:51;10.60;99.90
10692;DHT22;5396;50.950;6.988;2023-04-25T11:48:18;10.80;99.90
10692;DHT22;5396;50.950;6.988;2023-04-25T11:50:44;11.10;99.90
10692;DHT22;5396;50.950;6.988;2023-04-25T11:53:10;11.30;99.90
10692;DHT22;5396;50.950;6.988;2023-04-25T11:55:36;11.40;99.90
10692;DHT22;5396;50.950;6.988;2023-04-25T11:58:05;11.40;99.90
10692;DHT22;5396;50.950;6.988;2023-04-25T12:00:31;11.40;99.90
10692;DHT22;5396;50.950;6.988;2023-04-25T12:02:58;11.50;99.90
10692;DHT22;5396;50.950;6.988;2023-04-25T12:05:26;11.50;99.90
10692;DHT22;5396;50.950;6.988;2023-04-25T12:07:52;11.60;99.90
10692;DHT22;5396;50.950;6.988;2023-04-25T12:10:19;11.60;99.90
10692;DHT22;5396;50.950;6.988;2023-04-25T12:12:46;11.60;99.90
10692;DHT22;5396;50.950;6.988;2023-04-25T12:15:13;11.40;99.90
10692;DHT22;5396;50.950;6.988;2023-04-25T12:17:45;11.50;99.90
10692;DHT22;5396;50.950;6.988;2023-04-25T12:20:19;11.60;99.90
10692;DHT22;5396;50.950;6.988;2023-04-25T12:22:46;11.70;99.90
10692;DHT22;5396;50.950;6.988;2023-04-25T12:25:13;11.80;99.90
10692;DHT22;5396;50.950;6.988;2023-04-25T12:27:40;11.90;99.90
10692;DHT22;5396;50.950;6.988;2023-04-25T12:30:09;11.70;99.90
10692;DHT22;5396;50.950;6.988;2023-04-25T12:32:36;11.70;99.90
10692;DHT22;5396;50.950;6.988;2023-04-25T12:35:03;11.80;99.90
10692;DHT22;5396;50.950;6.988;2023-04-25T12:37:29;11.60;99.90
10692;DHT22;5396;50.950;6.988;2023-04-25T12:39:56;11.60;99.90
10692;DHT22;5396;50.950;6.988;2023-04-25T12:42:21;11.30;99.90
10692;DHT22;5396;50.950;6.988;2023-04-25T12:44:47;11.30;99.90
10692;DHT22;5396;50.950;6.988;2023-04-25T12:47:12;11.20;99.90
10692;DHT22;5396;50.950;6.988;2023-04-25T12:49:39;11.30;99.90
10692;DHT22;5396;50.950;6.988;2023-04-25T12:52:04;11.50;99.90
10692;DHT22;5396;50.950;6.988;2023-04-25T12:54:30;11.60;99.90
10692;DHT22;5396;50.950;6.988;2023-04-25T12:56:56;11.70;99.90
10692;DHT22;5396;50.950;6.988;2023-04-25T12:59:22;11.60;99.90
10692;DHT22;5396;50.950;6.988;2023-04-25T13:01:48;11.40;99.90
10692;DHT22;5396;50.950;6.988;2023-04-25T13:04:14;11.30;99.90
10692;DHT22;5396;50.950;6.988;2023-04-25T13:06:41;11.30;99.90
10692;DHT22;5396;50.950;6.988;2023-04-25T13:09:06;11.40;99.90
10692;DHT22;5396;50.950;6.988;2023-04-25T13:11:32;11.50;99.90
10692;DHT22;5396;50.950;6.988;2023-04-25T13:13:58;11.60;99.90
10692;DHT22;5396;50.950;6.988;2023-04-25T13:16:23;12.10;99.90
10692;DHT22;5396;50.950;6.988;2023-04-25T13:18:49;13.00;99.90
10692;DHT22;5396;50.950;6.988;2023-04-25T13:21:14;14.00;99.90
10692;DHT22;5396;50.950;6.988;2023-04-25T13:23:40;14.90;99.90
10692;DHT22;5396;50.950;6.988;2023-04-25T13:26:08;15.30;99.90
10692;DHT22;5396;50.950;6.988;2023-04-25T13:28:33;14.70;99.90
10692;DHT22;5396;50.950;6.988;2023-04-25T13:30:59;14.70;99.90
10692;DHT22;5396;50.950;6.988;2023-04-25T13:33:24;15.20;99.90
10692;DHT22;5396;50.950;6.988;2023-04-25T13:35:51;16.80;99.90
10692;DHT22;5396;50.950;6.988;2023-04-25T13:38:25;17.30;30.80
10692;DHT22;5396;50.950;6.988;2023-04-25T13:40:51;17.80;29.50
10692;DHT22;5396;50.950;6.988;2023-04-25T13:43:21;18.50;27.10
10692;DHT22;5396;50.950;6.988;2023-04-25T13:45:48;18.70;24.50
10692;DHT22;5396;50.950;6.988;2023-04-25T13:48:14;17.70;23.30
10692;DHT22;5396;50.950;6.988;2023-04-25T13:50:40;16.60;22.30
10692;DHT22;5396;50.950;6.988;2023-04-25T13:53:05;17.10;23.30
10692;DHT22;5396;50.950;6.988;2023-04-25T13:55:31;18.10;22.10
10692;DHT22;5396;50.950;6.988;2023-04-25T13:57:57;18.00;21.70
10692;DHT22;5396;50.950;6.988;2023-04-25T14:00:22;17.90;24.40
10692;DHT22;5396;50.950;6.988;2023-04-25T14:02:48;18.90;24.80
10692;DHT22;5396;50.950;6.988;2023-04-25T14:05:14;19.90;24.10
10692;DHT22;5396;50.950;6.988;2023-04-25T14:07:40;18.70;24.40
10692;DHT22;5396;50.950;6.988;2023-04-25T14:10:06;18.40;25.70
10692;DHT22;5396;50.950;6.988;2023-04-25T14:12:32;19.70;28.30
10692;DHT22;5396;50.950;6.988;2023-04-25T14:14:58;20.30;30.30
10692;DHT22;5396;50.950;6.988;2023-04-25T14:17:23;19.40;29.50
10692;DHT22;5396;50.950;6.988;2023-04-25T14:19:50;20.00;28.10
10692;DHT22;5396;50.950;6.988;2023-04-25T14:22:15;20.80;28.90
10692;DHT22;5396;50.950;6.988;2023-04-25T14:24:41;21.30;29.90
10692;DHT22;5396;50.950;6.988;2023-04-25T14:27:07;21.30;33.50
10692;DHT22;5396;50.950;6.988;2023-04-25T14:29:33;20.60;31.40
10692;DHT22;5396;50.950;6.988;2023-04-25T14:31:58;20.50;40.50
10692;DHT22;5396;50.950;6.988;2023-04-25T14:34:25;21.00;39.70
10692;DHT22;5396;50.950;6.988;2023-04-25T14:36:51;21.10;37.00
10692;DHT22;5396;50.950;6.988;2023-04-25T14:39:17;19.60;35.60
10692;DHT22;5396;50.950;6.988;2023-04-25T14:41:43;17.80;36.50
10692;DHT22;5396;50.950;6.988;2023-04-25T14:44:09;18.00;36.20
10692;DHT22;5396;50.950;6.988;2023-04-25T14:46:35;19.20;35.60
10692;DHT22;5396;50.950;6.988;2023-04-25T14:49:01;18.00;34.40
10692;DHT22;5396;50.950;6.988;2023-04-25T14:51:27;16.90;27.10
10692;DHT22;5396;50.950;6.988;2023-04-25T14:53:52;16.20;28.40
10692;DHT22;5396;50.950;6.988;2023-04-25T14:56:18;14.70;28.40
10692;DHT22;5396;50.950;6.988;2023-04-25T14:58:44;14.00;29.20
10692;DHT22;5396;50.950;6.988;2023-04-25T15:01:11;13.20;29.80
10692;DHT22;5396;50.950;6.988;2023-04-25T15:03:38;12.80;34.10
10692;DHT22;5396;50.950;6.988;2023-04-25T15:06:04;12.40;31.20
10692;DHT22;5396;50.950;6.988;2023-04-25T15:08:31;12.30;36.60
10692;DHT22;5396;50.950;6.988;2023-04-25T15:10:57;11.70;34.00
10692;DHT22;5396;50.950;6.988;2023-04-25T15:13:23;11.70;37.50
10692;DHT22;5396;50.950;6.988;2023-04-25T15:15:48;11.80;36.40
10692;DHT22;5396;50.950;6.988;2023-04-25T15:18:17;12.70;33.80
10692;DHT22;5396;50.950;6.988;2023-04-25T15:20:43;14.50;35.20
10692;DHT22;5396;50.950;6.988;2023-04-25T15:23:09;15.90;32.90
10692;DHT22;5396;50.950;6.988;2023-04-25T15:25:34;16.20;29.20
10692;DHT22;5396;50.950;6.988;2023-04-25T15:28:00;15.90;30.00
10692;DHT22;5396;50.950;6.988;2023-04-25T15:30:25;15.40;29.00
10692;DHT22;5396;50.950;6.988;2023-04-25T15:32:52;14.80;33.70
10692;DHT22;5396;50.950;6.988;2023-04-25T15:35:18;14.10;27.90
10692;DHT22;5396;50.950;6.988;2023-04-25T15:37:43;13.50;28.00
10692;DHT22;5396;50.950;6.988;2023-04-25T15:40:14;13.60;28.00
10692;DHT22;5396;50.950;6.988;2023-04-25T15:42:48;13.40;29.30
10692;DHT22;5396;50.950;6.988;2023-04-25T15:45:16;13.60;30.90
10692;DHT22;5396;50.950;6.988;2023-04-25T15:47:42;13.60;30.60
10692;DHT22;5396;50.950;6.988;2023-04-25T15:50:09;13.40;31.20
10692;DHT22;5396;50.950;6.988;2023-04-25T15:52:36;13.20;31.20
10692;DHT22;5396;50.950;6.988;2023-04-25T15:55:03;12.60;31.60
10692;DHT22;5396;50.950;6.988;2023-04-25T15:57:33;12.00;33.10
10692;DHT22;5396;50.950;6.988;2023-04-25T16:00:00;11.60;34.00